Castello de la Plana, Spain
Current Conditions -  °F | °C
As of 6:00 AM on Tuesday 27 Jan 2015 (Local Time) from LEBT Reporting Station
Clear Clear  
Wind Chill: 36°   Ceiling: Unl
Heat Index: 36°   Visibility: 6mi
Dew Point: 32°   Wind: 3mph
Humidity: 87%   Direction: 360°N
Pressure: 30.3"   Gusts: NA
Location:  39.98°N, 0.03°W
Report Text: LEBT 270500Z AUTO 36003KT 320V060 CAVOK 02/M00 Q1026
Loading
Personal Weather Stations






























Interactive Weather Map New forecast layout! Learn more

10-Day Weather Forecast

Advertisements
Track Severe Weather on mobile